Time;durP1;ratioP1;P1;durP2;ratioP2;P2;SDS_P1;SDS_P2;PMS_P1;PMS_P2;Temp;Humidity;BMP_temperature;BMP_pressure;BME280_temperature;BME280_humidity;BME280_pressure;Samples;Min_cycle;Max_cycle;Signal;HPM_P1;HPM_P2
2021/03/19 00:01:07;;;;;;;4.03;3.58;;;;;;;3.64;70.61;98910.08;1757637;80;21046;-40
2021/03/19 00:03:35;;;;;;;5.28;3.55;;;;;;;3.63;70.37;98913.31;1741005;81;21149;-40
2021/03/19 00:06:04;;;;;;;4.00;3.60;;;;;;;3.60;70.40;98915.86;1739250;81;21660;-40
2021/03/19 00:08:33;;;;;;;;;;;;;;;3.57;70.40;98913.29;1727984;82;21614;-40
2021/03/19 00:11:02;;;;;;;4.10;3.70;;;;;;;3.62;70.41;98906.41;1722380;82;21297;-40
2021/03/19 00:13:30;;;;;;;3.90;3.50;;;;;;;3.65;70.29;98908.98;1743856;79;21544;-40
2021/03/19 00:15:58;;;;;;;5.22;3.85;;;;;;;3.70;70.10;98913.60;1787776;79;21142;-40
2021/03/19 00:18:26;;;;;;;4.72;3.98;;;;;;;3.67;70.03;98912.92;1797828;79;21086;-40
2021/03/19 00:20:55;;;;;;;4.65;4.20;;;;;;;3.66;69.97;98908.66;1784691;79;21150;-40
2021/03/19 00:23:23;;;;;;;5.15;3.70;;;;;;;3.64;69.91;98913.55;1781766;79;21268;-40
2021/03/19 00:25:51;;;;;;;3.90;3.50;;;;;;;3.61;70.01;98916.09;1782011;79;21178;-40
2021/03/19 00:28:18;;;;;;;5.17;3.87;;;;;;;3.59;70.09;98919.09;1783533;79;21573;-40
2021/03/19 00:30:47;;;;;;;4.25;3.80;;;;;;;3.62;69.89;98917.13;1787516;79;21145;-40
2021/03/19 00:33:15;;;;;;;5.03;3.33;;;;;;;3.63;69.77;98911.97;1790807;79;21568;-41
2021/03/19 00:35:44;;;;;;;4.40;3.60;;;;;;;3.63;69.82;98907.95;1811019;79;21364;-40
2021/03/19 00:38:12;;;;;;;3.95;3.58;;;;;;;3.63;69.88;98909.88;1811677;79;21158;-40
2021/03/19 00:40:41;;;;;;;4.25;3.80;;;;;;;3.61;69.91;98919.57;1803142;79;21170;-41
2021/03/19 00:43:10;;;;;;;3.83;3.37;;;;;;;3.57;70.01;98911.16;1784960;79;21482;-40
2021/03/19 00:45:38;;;;;;;4.33;2.95;;;;;;;3.50;70.06;98913.78;1788251;79;21573;-40
2021/03/19 00:48:07;;;;;;;3.22;2.92;;;;;;;3.45;70.12;98909.16;1781427;80;21360;-41
2021/03/19 00:50:38;;;;;;;3.67;2.90;;;;;;;3.44;70.17;98915.62;1779125;79;21118;-40
2021/03/19 00:53:06;;;;;;;3.30;3.00;;;;;;;3.44;70.11;98911.61;1781956;79;21087;-41
2021/03/19 00:55:34;;;;;;;3.67;3.37;;;;;;;3.39;70.15;98906.42;1782340;79;21161;-40
2021/03/19 00:58:02;;;;;;;3.60;3.30;;;;;;;3.37;70.30;98912.67;1781882;79;21632;-40
2021/03/19 01:00:36;;;;;;;3.87;3.42;;;;;;;3.34;70.41;98905.30;1791524;79;22330;-40
2021/03/19 01:03:07;;;;;;;4.60;3.60;;;;;;;3.33;70.40;98907.73;1801921;79;20984;-40
2021/03/19 01:05:41;;;;;;;3.60;3.30;;;;;;;3.30;70.51;98912.38;1803684;79;21146;-40
2021/03/19 01:08:11;;;;;;;3.83;3.52;;;;;;;3.26;70.41;98904.77;1798414;79;21593;-40
2021/03/19 01:10:43;;;;;;;5.55;3.95;;;;;;;3.26;70.35;98910.91;1798425;79;21596;-40
2021/03/19 01:13:11;;;;;;;4.30;3.90;;;;;;;3.25;70.51;98903.19;1813096;79;21363;-40
2021/03/19 01:15:40;;;;;;;4.65;4.15;;;;;;;3.26;70.62;98906.89;1816071;78;21158;-40
2021/03/19 01:18:11;;;;;;;4.40;4.00;;;;;;;3.29;70.65;98907.58;1822979;78;21588;-40
2021/03/19 01:20:40;;;;;;;4.03;3.62;;;;;;;3.30;70.56;98904.34;1823719;78;21569;-40
2021/03/19 01:23:09;;;;;;;4.20;3.80;;;;;;;3.33;70.62;98905.06;1797057;77;21129;-41
2021/03/19 01:25:37;;;;;;;4.10;3.70;;;;;;;3.38;70.46;98908.89;1796779;78;21357;-41
2021/03/19 01:28:08;;;;;;;3.95;3.55;;;;;;;3.47;70.32;98909.64;1801403;78;21182;-40
2021/03/19 01:30:38;;;;;;;4.28;3.87;;;;;;;3.54;70.03;98907.77;1814316;78;21114;-40
2021/03/19 01:33:07;;;;;;;5.20;3.85;;;;;;;3.55;70.07;98910.14;1802960;77;21604;-40
2021/03/19 01:35:37;;;;;;;5.05;4.03;;;;;;;3.56;70.08;98910.37;1819775;78;21145;-40
2021/03/19 01:38:07;;;;;;;4.97;3.80;;;;;;;3.60;69.97;98911.84;1808301;78;21513;-40
2021/03/19 01:40:42;;;;;;;4.62;3.60;;;;;;;3.62;69.90;98907.75;1809085;77;21722;-41
2021/03/19 01:43:38;;;;;;;5.25;4.37;;;;;;;3.62;69.64;98903.72;1829604;76;22700;-40
2021/03/19 01:47:02;;;;;;;4.67;4.00;;;;;;;3.54;69.62;98911.79;1790021;79;20936;-39
2021/03/19 01:50:28;;;;;;;5.40;3.72;;;;;;;3.54;69.76;98911.23;1787352;77;21357;-39
2021/03/19 01:53:52;;;;;;;4.90;3.85;;;;;;;3.50;69.91;98913.00;1802159;77;21177;-39
2021/03/19 01:57:16;;;;;;;4.17;3.60;;;;;;;3.50;70.05;98913.00;1784867;79;20987;-39
2021/03/19 02:00:41;;;;;;;4.72;4.22;;;;;;;3.46;70.02;98910.73;1796153;78;20977;-39
2021/03/19 02:04:05;;;;;;;4.33;3.90;;;;;;;3.41;70.19;98914.94;1798952;78;21577;-39
2021/03/19 02:07:29;;;;;;;6.50;4.15;;;;;;;3.34;70.24;98914.67;1782688;77;21271;-39
2021/03/19 02:10:53;;;;;;;5.17;3.83;;;;;;;3.34;70.20;98922.71;1802364;77;20953;-39
2021/03/19 02:14:17;;;;;;;4.30;3.70;;;;;;;3.32;70.22;98918.22;1800054;77;21044;-39
2021/03/19 02:17:41;;;;;;;5.55;4.30;;;;;;;3.26;70.44;98918.16;1804796;79;21130;-39
2021/03/19 02:21:05;;;;;;;4.20;3.65;;;;;;;3.17;70.55;98928.91;1800712;77;21154;-39
2021/03/19 02:24:29;;;;;;;5.40;4.30;;;;;;;3.11;70.71;98926.17;1805509;78;21380;-39
2021/03/19 02:27:54;;;;;;;4.58;3.60;;;;;;;2.96;70.81;98932.83;1803484;79;21125;-39
2021/03/19 02:31:03;;;;;;;4.87;3.85;;;;;;;2.88;71.03;98936.32;1798836;77;21154;-39
2021/03/19 02:33:32;;;;;;;4.37;3.98;;;;;;;2.90;71.21;98938.14;1780542;77;21129;-39
2021/03/19 02:36:00;;;;;;;4.25;3.65;;;;;;;2.82;71.11;98940.27;1809414;79;21566;-39
2021/03/19 02:38:28;;;;;;;4.70;4.22;;;;;;;2.78;71.33;98940.67;1734982;80;21600;-39
2021/03/19 02:40:56;;;;;;;4.58;3.75;;;;;;;2.81;71.23;98941.94;1747021;82;21569;-39
2021/03/19 02:43:25;;;;;;;4.35;3.80;;;;;;;2.80;71.15;98941.70;1728829;81;21172;-44
2021/03/19 02:45:53;;;;;;;3.95;3.55;;;;;;;2.83;71.13;98944.52;1806701;79;21189;-39
2021/03/19 02:48:21;;;;;;;3.72;3.37;;;;;;;2.92;70.96;98949.30;1800925;79;21325;-39
2021/03/19 02:50:51;;;;;;;4.42;3.72;;;;;;;2.95;70.74;98944.64;1789880;79;21358;-39
2021/03/19 02:53:24;;;;;;;4.20;3.80;;;;;;;2.87;70.58;98944.66;1790643;79;21134;-39
2021/03/19 02:55:53;;;;;;;5.33;4.62;;;;;;;2.79;70.83;98952.95;1803454;79;21181;-39
2021/03/19 02:58:21;;;;;;;4.42;4.03;;;;;;;2.78;71.01;98960.75;1805353;79;21700;-39
2021/03/19 03:00:49;;;;;;;4.75;3.95;;;;;;;2.80;70.88;98953.20;1792687;79;21730;-39
2021/03/19 03:03:17;;;;;;;4.67;4.00;;;;;;;2.82;70.64;98959.00;1801019;77;22264;-39
2021/03/19 03:05:46;;;;;;;4.78;4.37;;;;;;;2.86;70.66;98958.59;1783987;79;21149;-39
2021/03/19 03:08:17;;;;;;;4.87;4.30;;;;;;;2.89;70.56;98953.97;1798277;79;21569;-39
2021/03/19 03:10:47;;;;;;;5.22;4.42;;;;;;;2.89;70.59;98960.66;1791603;79;21557;-39
2021/03/19 03:13:15;;;;;;;4.90;4.22;;;;;;;2.87;70.40;98962.06;1811177;77;21189;-39
2021/03/19 03:15:43;;;;;;;5.62;4.35;;;;;;;2.88;70.43;98963.64;1748206;82;21252;-39
2021/03/19 03:18:13;;;;;;;6.47;4.12;;;;;;;2.80;70.22;98962.56;1811940;79;21141;-39
2021/03/19 03:20:48;;;;;;;6.58;4.15;;;;;;;2.70;70.53;98958.88;1807330;77;21602;-39
2021/03/19 03:23:17;;;;;;;5.20;3.90;;;;;;;2.66;70.56;98963.30;1743894;80;21637;-39
2021/03/19 03:25:46;;;;;;;4.80;4.30;;;;;;;2.68;70.65;98963.75;1798534;79;21119;-39
2021/03/19 03:28:14;;;;;;;5.75;4.60;;;;;;;2.64;70.59;98966.83;1799502;77;21186;-40
2021/03/19 03:30:45;;;;;;;5.72;4.08;;;;;;;2.59;70.82;98961.64;1810881;79;21036;-40
2021/03/19 03:33:14;;;;;;;5.33;4.28;;;;;;;2.58;70.69;98970.76;1810214;79;21596;-40
2021/03/19 03:35:42;;;;;;;5.03;4.42;;;;;;;2.51;70.79;98963.78;1797513;79;21616;-40
2021/03/19 03:38:14;;;;;;;5.15;4.37;;;;;;;2.50;70.75;98966.20;1799431;79;21556;-40
2021/03/19 03:40:53;;;;;;;5.60;4.22;;;;;;;2.53;70.76;98968.24;1790526;77;22116;-40
2021/03/19 03:43:21;;;;;;;4.70;3.33;;;;;;;2.59;70.67;98969.66;1803046;79;21193;-40
2021/03/19 03:45:50;;;;;;;5.30;4.60;;;;;;;2.58;70.64;98974.23;1777906;78;21134;-40
2021/03/19 03:48:21;;;;;;;6.50;4.60;;;;;;;2.55;70.69;98971.41;1780978;79;21537;-40
2021/03/19 03:50:49;;;;;;;5.97;4.72;;;;;;;2.57;70.73;98967.84;1796868;79;21573;-40
2021/03/19 03:53:18;;;;;;;8.65;4.75;;;;;;;2.55;70.59;98969.52;1778856;79;22265;-40
2021/03/19 03:55:46;;;;;;;5.33;4.20;;;;;;;2.53;70.50;98968.24;1719247;81;21149;-40
2021/03/19 03:58:14;;;;;;;6.37;4.42;;;;;;;2.55;70.45;98967.39;1755362;80;21021;-40
2021/03/19 04:00:42;;;;;;;6.42;4.92;;;;;;;2.57;70.44;98974.53;1733862;81;21187;-40
2021/03/19 04:03:10;;;;;;;6.65;4.67;;;;;;;2.54;70.51;98970.61;1761596;81;21650;-40
2021/03/19 04:05:42;;;;;;;8.58;4.97;;;;;;;2.54;70.56;98967.94;1747027;80;21194;-40
2021/03/19 04:08:12;;;;;;;6.28;5.37;;;;;;;2.55;70.54;98969.52;1740564;81;21158;-41
2021/03/19 04:10:40;;;;;;;7.85;5.20;;;;;;;2.54;70.59;98967.15;1727803;81;21216;-40
2021/03/19 04:13:10;;;;;;;6.67;4.83;;;;;;;2.54;70.39;98975.17;1750678;81;21659;-40
2021/03/19 04:15:38;;;;;;;6.80;5.10;;;;;;;2.55;70.35;98974.87;1724383;81;21614;-40
2021/03/19 04:18:13;;;;;;;5.62;4.67;;;;;;;2.63;70.22;98969.27;1747209;81;21367;-40
2021/03/19 04:20:43;;;;;;;7.78;5.35;;;;;;;2.68;70.34;98975.00;1753982;79;21199;-40
2021/03/19 04:23:12;;;;;;;5.97;4.95;;;;;;;2.73;70.33;98974.84;1749584;81;21209;-40
2021/03/19 04:25:41;;;;;;;6.25;5.42;;;;;;;2.77;70.08;98975.77;1750111;81;21174;-40
2021/03/19 04:28:14;;;;;;;8.23;5.45;;;;;;;2.73;69.96;98977.52;1737943;82;21387;-40
2021/03/19 04:30:43;;;;;;;7.08;5.60;;;;;;;2.67;69.98;98982.24;1757127;81;21213;-40
2021/03/19 04:33:19;;;;;;;6.03;5.03;;;;;;;2.69;70.01;98980.59;1767499;81;21157;-40
2021/03/19 04:35:53;;;;;;;6.28;5.12;;;;;;;2.75;69.95;98981.47;1751263;81;21031;-40
2021/03/19 04:38:20;;;;;;;8.20;6.20;;;;;;;2.81;69.68;98986.11;1715308;81;21156;-40
2021/03/19 04:40:49;;;;;;;8.75;5.97;;;;;;;2.80;69.58;98977.84;1760745;80;21185;-40
2021/03/19 04:43:17;;;;;;;6.78;5.75;;;;;;;2.78;69.62;98984.84;1746636;81;21343;-40
2021/03/19 04:45:45;;;;;;;5.97;5.37;;;;;;;2.79;69.64;98985.08;1742566;81;21153;-40
2021/03/19 04:48:13;;;;;;;7.03;5.10;;;;;;;2.76;69.60;98979.00;1744244;81;21042;-40
2021/03/19 04:50:41;;;;;;;7.87;5.12;;;;;;;2.74;69.52;98982.56;1736893;81;21067;-40
2021/03/19 04:53:09;;;;;;;7.70;5.42;;;;;;;2.76;69.57;98986.27;1727760;81;21159;-40
2021/03/19 04:55:38;;;;;;;8.13;5.80;;;;;;;2.81;69.63;98989.55;1736143;81;21377;-40
2021/03/19 04:58:06;;;;;;;8.20;5.17;;;;;;;2.87;69.31;98986.16;1734610;82;21663;-40
2021/03/19 05:00:34;;;;;;;8.38;5.95;;;;;;;2.86;68.97;98992.06;1750512;79;21579;-40
2021/03/19 05:03:02;;;;;;;6.50;5.12;;;;;;;2.82;68.97;98993.02;1743911;80;21169;-40
2021/03/19 05:05:33;;;;;;;6.55;5.40;;;;;;;2.77;69.10;98987.82;1750352;79;21627;-40
2021/03/19 05:08:01;;;;;;;6.72;5.10;;;;;;;2.76;69.12;98991.05;1765136;79;21359;-40
2021/03/19 05:10:34;;;;;;;8.18;5.33;;;;;;;2.77;69.00;98985.94;1763898;79;21140;-40
2021/03/19 05:13:02;;;;;;;7.65;5.40;;;;;;;2.82;68.75;98991.12;1739617;81;21144;-41
2021/03/19 05:15:31;;;;;;;7.20;5.40;;;;;;;2.80;68.71;98989.34;1737963;82;21182;-40
2021/03/19 05:18:01;;;;;;;7.05;5.75;;;;;;;2.78;68.68;98994.20;1763058;81;21045;-40
2021/03/19 05:20:29;;;;;;;6.62;5.45;;;;;;;2.75;68.79;98994.84;1719937;82;22044;-40
2021/03/19 05:22:57;;;;;;;6.60;5.20;;;;;;;2.76;68.99;98991.62;1735985;82;21628;-40
2021/03/19 05:25:31;;;;;;;7.30;5.62;;;;;;;2.80;68.96;98993.35;1725530;82;21154;-40
2021/03/19 05:27:59;;;;;;;8.65;5.08;;;;;;;2.80;68.81;98993.35;1757590;81;21160;-40
2021/03/19 05:30:28;;;;;;;6.28;5.20;;;;;;;2.83;68.66;98991.37;1738020;82;21157;-40
2021/03/19 05:32:55;;;;;;;7.50;5.15;;;;;;;2.89;68.63;99001.36;1738067;81;21161;-40
2021/03/19 05:35:24;;;;;;;7.00;5.53;;;;;;;2.94;68.63;98995.84;1763710;81;21173;-40
2021/03/19 05:37:53;;;;;;;6.50;5.35;;;;;;;2.97;68.45;99001.89;1766873;81;21457;-41
2021/03/19 05:40:37;;;;;;;8.38;5.40;;;;;;;2.98;68.38;99000.25;1752952;81;21715;-40
2021/03/19 05:43:25;;;;;;;6.12;4.70;;;;;;;2.97;68.33;99003.23;1742456;79;21619;-40
2021/03/19 05:46:07;;;;;;;7.62;5.90;;;;;;;2.96;68.17;99005.13;1742506;79;22269;-40
2021/03/19 05:48:53;;;;;;;6.67;5.50;;;;;;;2.91;68.49;99010.64;1732415;81;21174;-40
2021/03/19 05:51:35;;;;;;;7.58;5.60;;;;;;;3.01;68.26;99008.97;1711593;81;21205;-39
2021/03/19 05:54:36;;;;;;;7.72;6.10;;;;;;;3.10;68.23;99014.89;1737961;81;21182;-40
2021/03/19 05:57:07;;;;;;;;;;;;;;;3.11;68.01;99010.53;1753458;81;21153;-39
2021/03/19 05:59:40;;;;;;;8.10;6.00;;;;;;;3.10;67.91;99012.20;1744141;81;21439;-40
2021/03/19 06:02:33;;;;;;;8.38;6.12;;;;;;;3.02;68.40;99019.13;1740858;81;21173;-39
2021/03/19 06:05:21;;;;;;;9.08;6.47;;;;;;;3.09;68.30;99021.34;1738430;81;21584;-40
2021/03/19 06:07:58;;;;;;;9.53;5.70;;;;;;;3.13;68.20;99023.06;1744072;81;21922;-39
2021/03/19 06:10:33;;;;;;;8.35;5.97;;;;;;;3.14;68.16;99026.53;1730268;81;21178;-40
2021/03/19 06:13:24;;;;;;;7.20;6.22;;;;;;;3.14;67.95;99028.66;1730407;81;21672;-40
2021/03/19 06:16:16;;;;;;;7.15;5.58;;;;;;;3.25;67.72;99031.22;1725897;82;21179;-40
2021/03/19 06:18:47;;;;;;;9.08;6.62;;;;;;;3.26;67.48;99036.02;1751110;81;21150;-39
2021/03/19 06:21:32;;;;;;;8.65;6.80;;;;;;;3.26;67.70;99035.47;1735557;80;21625;-40
2021/03/19 06:24:23;;;;;;;8.35;6.62;;;;;;;3.34;67.97;99037.91;1681984;83;21585;-40
2021/03/19 06:26:53;;;;;;;9.25;6.75;;;;;;;3.41;67.67;99038.20;1712634;82;22179;-40
2021/03/19 06:29:33;;;;;;;10.30;7.03;;;;;;;3.40;67.55;99041.97;1748984;81;21011;-40
2021/03/19 06:32:17;;;;;;;;;;;;;;;3.46;67.96;99038.03;1749503;81;21186;-40
2021/03/19 06:35:12;;;;;;;8.38;6.25;;;;;;;3.58;67.68;99044.86;1739514;81;20305;-40
2021/03/19 06:37:46;;;;;;;11.65;8.08;;;;;;;3.64;67.69;99043.55;1738578;80;21166;-40
2021/03/19 06:40:36;;;;;;;10.55;7.55;;;;;;;3.70;67.37;99043.62;1732626;81;22476;-40
2021/03/19 06:43:18;;;;;;;11.20;7.22;;;;;;;3.70;67.38;99043.62;1755424;81;27201;-40
2021/03/19 06:45:57;;;;;;;11.30;7.10;;;;;;;3.70;67.04;99047.64;1764970;80;22109;-40
2021/03/19 06:48:36;;;;;;;9.08;7.42;;;;;;;3.70;67.14;99050.88;1823321;78;23342;-40
2021/03/19 06:51:27;;;;;;;10.03;7.83;;;;;;;3.65;67.01;99049.16;1794307;79;21043;-39
2021/03/19 06:54:13;;;;;;;8.80;7.03;;;;;;;3.63;67.14;99053.28;1785862;79;21596;-39
2021/03/19 06:57:02;;;;;;;9.20;7.03;;;;;;;3.66;67.24;99054.75;1786095;79;21020;-39
2021/03/19 06:59:48;;;;;;;7.75;6.67;;;;;;;3.76;67.31;99045.02;1780200;79;21118;-39
2021/03/19 07:02:54;;;;;;;9.58;7.25;;;;;;;3.84;66.80;99056.80;1792275;79;21055;-39
2021/03/19 07:06:04;;;;;;;8.70;6.47;;;;;;;3.92;66.37;99056.00;1792867;79;20933;-39
2021/03/19 07:09:28;;;;;;;10.72;7.35;;;;;;;3.90;65.71;99059.00;1794258;79;21364;-39
2021/03/19 07:12:27;;;;;;;9.35;7.22;;;;;;;3.83;65.95;99056.02;1792924;79;21004;-39
2021/03/19 07:15:28;;;;;;;7.05;5.17;;;;;;;3.74;66.24;99057.95;1797825;79;21036;-39
2021/03/19 07:18:29;;;;;;;7.92;6.37;;;;;;;3.69;66.69;99058.13;1789987;79;21154;-39
2021/03/19 07:21:42;;;;;;;8.33;6.62;;;;;;;3.76;66.88;99061.11;1756692;79;21339;-39
2021/03/19 07:24:50;;;;;;;9.88;7.17;;;;;;;3.97;66.60;99063.08;1762735;80;21624;-39
2021/03/19 07:27:57;;;;;;;9.48;6.90;;;;;;;4.13;66.23;99062.74;1753218;80;21157;-39
2021/03/19 07:30:39;;;;;;;9.68;6.80;;;;;;;4.18;65.92;99062.56;1764222;79;21043;-39
2021/03/19 07:33:31;;;;;;;8.88;6.95;;;;;;;4.20;65.71;99063.03;1763176;80;21174;-39
2021/03/19 07:36:39;;;;;;;8.45;6.90;;;;;;;4.24;65.72;99064.74;1766743;80;21139;-39
2021/03/19 07:39:42;;;;;;;8.70;6.95;;;;;;;4.27;65.76;99065.42;1738766;80;21219;-39
2021/03/19 07:42:41;;;;;;;;;;;;;;;;;;;;;
2021/03/19 07:45:33;;;;;;;8.90;6.78;;;;;;;4.43;65.28;99065.66;1811127;78;22511;-39
2021/03/19 07:48:38;;;;;;;9.10;6.28;;;;;;;4.44;65.17;99061.86;1742124;80;21036;-39
2021/03/19 07:51:36;;;;;;;8.35;6.28;;;;;;;4.63;65.08;99060.86;1768464;80;21373;-39
2021/03/19 07:54:17;;;;;;;8.43;6.85;;;;;;;4.86;65.23;99059.17;1748466;80;21049;-39
2021/03/19 07:57:03;;;;;;;9.55;6.15;;;;;;;5.16;64.58;99060.66;1763002;80;21043;-39
2021/03/19 07:59:51;;;;;;;9.23;6.53;;;;;;;5.41;63.16;99059.62;1729149;82;21589;-39
2021/03/19 08:03:04;;;;;;;8.50;6.42;;;;;;;5.57;62.14;99068.60;1762370;79;21131;-39
2021/03/19 08:05:51;;;;;;;6.60;5.58;;;;;;;5.58;60.86;99062.11;1737236;81;21664;-39
2021/03/19 08:08:30;;;;;;;8.48;6.35;;;;;;;5.46;60.40;99066.13;1744545;82;20988;-39
2021/03/19 08:11:26;;;;;;;7.47;6.20;;;;;;;5.12;60.43;99008.70;1769182;80;21012;-39
2021/03/19 08:14:33;;;;;;;9.08;7.60;;;;;;;5.50;60.93;99062.21;1747005;82;21183;-39
2021/03/19 08:17:46;;;;;;;6.97;6.22;;;;;;;5.55;60.97;99062.00;1735373;81;21194;-39
2021/03/19 08:20:53;;;;;;;7.20;5.83;;;;;;;5.55;61.53;99056.06;1736910;81;22108;-39
2021/03/19 08:23:38;;;;;;;6.80;5.45;;;;;;;5.56;60.45;99057.64;1761372;80;21198;-39
2021/03/19 08:26:16;;;;;;;6.75;5.17;;;;;;;5.50;60.31;99058.97;1737603;80;21184;-39
2021/03/19 08:29:02;;;;;;;9.23;6.17;;;;;;;5.49;60.83;99066.80;1759480;80;21028;-39
2021/03/19 08:31:50;;;;;;;8.78;6.70;;;;;;;5.52;60.18;99063.99;1726779;81;21721;-39
2021/03/19 08:34:35;;;;;;;9.48;6.72;;;;;;;5.50;60.59;99063.56;1727116;81;22310;-40
2021/03/19 08:37:04;;;;;;;8.90;6.62;;;;;;;5.51;60.29;99069.17;1733926;81;21198;-39
2021/03/19 08:39:42;;;;;;;8.23;6.05;;;;;;;5.55;60.28;99070.06;1733924;81;21193;-41
2021/03/19 08:42:27;;;;;;;8.45;6.87;;;;;;;5.60;60.32;99071.98;1759326;80;21202;-40
2021/03/19 08:45:07;;;;;;;11.00;7.05;;;;;;;5.68;60.23;99068.41;1829528;78;22732;-40
2021/03/19 08:47:42;;;;;;;9.73;7.20;;;;;;;5.66;60.13;99078.70;1785335;79;21016;-39
2021/03/19 08:50:26;;;;;;;9.70;6.47;;;;;;;5.66;59.64;99078.70;1795015;78;22068;-40
2021/03/19 08:53:14;;;;;;;7.03;5.55;;;;;;;5.67;59.77;99076.25;1801186;78;21051;-39
2021/03/19 08:55:52;;;;;;;6.37;4.78;;;;;;;5.69;59.23;99082.09;1796145;78;21027;-39
2021/03/19 08:58:35;;;;;;;6.80;5.33;;;;;;;5.91;59.04;99076.87;1808323;77;21625;-39
2021/03/19 09:01:07;;;;;;;7.78;6.08;;;;;;;6.22;58.49;99075.53;1795148;79;21614;-38
2021/03/19 09:03:49;;;;;;;8.78;6.12;;;;;;;6.55;58.43;99076.97;1794381;78;21429;-38
2021/03/19 09:06:25;;;;;;;8.20;6.00;;;;;;;6.81;56.92;99075.80;1794597;78;21019;-38
2021/03/19 09:09:15;;;;;;;7.35;5.47;;;;;;;6.90;56.52;99079.13;1801011;78;20975;-39
2021/03/19 09:11:53;;;;;;;6.12;5.37;;;;;;;6.93;55.73;99078.44;1792895;78;21185;-39
2021/03/19 09:14:36;;;;;;;8.83;5.45;;;;;;;6.89;55.12;99072.95;1748914;81;21182;-38
2021/03/19 09:17:05;;;;;;;6.58;5.10;;;;;;;6.80;54.34;99083.65;1771392;80;22353;-38
2021/03/19 09:19:47;;;;;;;8.08;5.65;;;;;;;6.71;54.46;99081.66;1762266;80;21048;-38
2021/03/19 09:22:27;;;;;;;8.63;6.47;;;;;;;6.66;54.55;99080.54;1703572;80;21162;-38
2021/03/19 09:25:14;;;;;;;6.33;5.03;;;;;;;6.74;54.98;99079.05;1738518;80;21176;-38
2021/03/19 09:28:06;;;;;;;5.25;4.75;;;;;;;6.79;53.77;99082.86;1703434;80;21529;-38
2021/03/19 09:30:58;;;;;;;5.92;5.10;;;;;;;6.77;53.17;99077.61;1769773;80;21219;-38
2021/03/19 09:33:51;;;;;;;6.67;5.15;;;;;;;6.95;54.12;99077.55;1762132;81;21021;-38
2021/03/19 09:36:59;;;;;;;6.47;5.72;;;;;;;7.28;53.94;99085.39;1747928;81;21174;-38
2021/03/19 09:40:05;;;;;;;7.37;6.15;;;;;;;7.65;54.09;99088.11;1738613;80;21141;-38
2021/03/19 09:42:46;;;;;;;6.15;5.55;;;;;;;7.94;52.71;99089.61;1723744;82;21120;-38
2021/03/19 09:45:25;;;;;;;7.15;5.95;;;;;;;8.00;51.99;99086.88;1735319;82;22278;-38
2021/03/19 09:48:13;;;;;;;6.97;5.55;;;;;;;8.06;52.38;99084.14;1792194;79;21092;-38
2021/03/19 09:50:59;;;;;;;4.37;3.60;;;;;;;8.07;51.65;99086.28;1792431;79;21004;-38
2021/03/19 09:53:34;;;;;;;5.40;4.72;;;;;;;8.12;51.26;99083.31;1785904;79;22184;-39
2021/03/19 09:56:27;;;;;;;6.37;5.30;;;;;;;8.16;51.30;99088.23;1787492;79;21165;-38
2021/03/19 09:58:57;;;;;;;5.87;5.03;;;;;;;8.18;50.38;99088.09;1711570;82;21388;-38
2021/03/19 10:01:44;;;;;;;8.05;4.62;;;;;;;8.03;50.15;99087.55;1739759;82;21214;-38
2021/03/19 10:04:35;;;;;;;5.55;4.40;;;;;;;7.94;49.69;99086.92;1771233;80;20984;-38
2021/03/19 10:07:16;;;;;;;6.37;4.30;;;;;;;8.04;49.47;99089.66;1743258;79;21146;-38
2021/03/19 10:09:54;;;;;;;7.33;4.53;;;;;;;8.29;47.88;99084.30;1782688;79;20953;-38
2021/03/19 10:12:29;;;;;;;6.12;4.67;;;;;;;8.47;47.96;99083.40;1785862;79;21267;-38
2021/03/19 10:15:17;;;;;;;5.45;4.67;;;;;;;8.70;48.52;99089.14;1759303;79;21202;-38
2021/03/19 10:17:55;;;;;;;5.08;4.50;;;;;;;9.01;47.31;99078.77;1791632;79;21040;-38
2021/03/19 10:20:33;;;;;;;5.05;4.58;;;;;;;9.21;46.83;99084.17;1790033;79;21167;-38
2021/03/19 10:23:27;;;;;;;6.45;5.05;;;;;;;9.40;45.27;99076.83;1772546;79;21156;-38
2021/03/19 10:26:20;;;;;;;5.10;4.40;;;;;;;9.36;44.18;99081.39;1783736;79;22061;-38
2021/03/19 10:28:55;;;;;;;4.67;4.22;;;;;;;9.34;45.43;99077.49;1712008;83;21198;-38
2021/03/19 10:32:16;;;;;;;7.25;4.83;;;;;;;9.47;44.73;99080.24;1816032;77;22651;-38
2021/03/19 10:34:54;;;;;;;5.83;4.20;;;;;;;9.31;44.88;99077.63;1797398;79;21027;-39
2021/03/19 10:37:38;;;;;;;5.47;3.87;;;;;;;9.12;43.25;99081.69;1784113;78;21239;-38
2021/03/19 10:40:23;;;;;;;5.35;3.92;;;;;;;8.80;43.16;99089.15;1747890;82;21074;-38
2021/03/19 10:43:29;;;;;;;5.20;3.42;;;;;;;8.67;43.50;99084.98;1772885;80;21059;-38
2021/03/19 10:46:17;;;;;;;5.65;3.80;;;;;;;8.78;42.56;99083.30;1757299;80;21144;-38
2021/03/19 10:49:02;;;;;;;4.47;3.77;;;;;;;8.85;43.21;99086.73;1765932;80;21135;-38
2021/03/19 10:51:50;;;;;;;4.80;3.62;;;;;;;9.03;42.98;99079.20;1747021;82;21374;-39
2021/03/19 10:54:43;;;;;;;4.97;3.50;;;;;;;9.27;43.25;99069.23;1735822;82;21032;-38
2021/03/19 10:57:30;;;;;;;5.12;4.03;;;;;;;9.42;42.49;99071.06;1730262;81;21694;-38
2021/03/19 11:00:00;;;;;;;5.12;3.98;;;;;;;9.38;42.45;99072.36;1739451;82;21412;-38
2021/03/19 11:02:29;;;;;;;5.20;4.03;;;;;;;9.35;43.31;99064.94;1749280;81;22039;-38
2021/03/19 11:05:03;;;;;;;4.20;3.50;;;;;;;9.52;43.43;99070.48;1744524;81;21374;-38
2021/03/19 11:07:43;;;;;;;4.25;3.42;;;;;;;9.71;41.79;99067.73;1747837;80;21826;-38
2021/03/19 11:10:34;;;;;;;4.12;3.30;;;;;;;9.87;40.70;99073.03;1750499;80;21195;-38
2021/03/19 11:13:12;;;;;;;3.70;3.40;;;;;;;9.97;40.08;99067.77;1756290;81;21106;-39
2021/03/19 11:15:50;;;;;;;3.50;3.10;;;;;;;10.10;40.15;99066.24;1758667;81;21166;-38
2021/03/19 11:18:39;;;;;;;3.15;2.80;;;;;;;10.17;39.39;99065.80;1748528;81;21190;-38
2021/03/19 11:21:16;;;;;;;3.95;2.77;;;;;;;10.14;37.96;99069.22;1742652;81;21632;-38
2021/03/19 11:23:49;;;;;;;4.17;2.90;;;;;;;10.16;38.11;99063.47;1743429;80;21608;-38
2021/03/19 11:26:27;;;;;;;4.03;2.87;;;;;;;10.30;37.82;99071.81;1727791;82;21629;-38
2021/03/19 11:29:17;;;;;;;3.62;2.98;;;;;;;10.62;38.40;99062.21;1762404;80;21593;-38
2021/03/19 11:32:15;;;;;;;3.72;3.27;;;;;;;10.95;35.92;99058.77;1764012;80;21394;-38
2021/03/19 11:34:47;;;;;;;3.60;3.10;;;;;;;11.15;37.55;99062.89;1750074;80;28417;-38
2021/03/19 11:37:27;;;;;;;4.30;3.40;;;;;;;11.19;37.45;99053.42;1760846;80;21187;-38
2021/03/19 11:40:26;;;;;;;4.08;3.37;;;;;;;11.15;37.86;99057.45;1721132;82;21199;-38
2021/03/19 11:43:00;;;;;;;3.83;3.02;;;;;;;11.22;37.82;99054.84;1723403;82;21166;-38
2021/03/19 11:45:32;;;;;;;3.85;3.00;;;;;;;11.11;37.19;99059.92;1726800;83;22259;-38
2021/03/19 11:48:07;;;;;;;4.58;3.37;;;;;;;10.99;37.42;99058.23;1754889;81;21182;-38
2021/03/19 11:50:39;;;;;;;3.90;2.83;;;;;;;10.84;35.79;99055.16;1737470;81;21209;-38
2021/03/19 11:53:14;;;;;;;3.27;2.95;;;;;;;10.63;36.90;99058.36;1792519;79;21158;-38
2021/03/19 11:55:45;;;;;;;4.37;3.12;;;;;;;10.72;37.39;99060.22;1790979;79;21264;-38
2021/03/19 11:58:15;;;;;;;5.15;3.25;;;;;;;10.93;36.74;99060.30;1799586;79;22100;-38
2021/03/19 12:00:44;;;;;;;3.80;2.90;;;;;;;10.95;36.88;99057.41;1812565;78;21033;-38
2021/03/19 12:03:19;;;;;;;4.15;3.27;;;;;;;10.87;37.58;99054.41;1741338;81;21198;-38
2021/03/19 12:05:47;;;;;;;4.37;3.50;;;;;;;10.86;37.43;99051.48;1740563;80;21163;-38
2021/03/19 12:08:15;;;;;;;4.50;3.12;;;;;;;10.79;37.28;99050.84;1786997;78;21166;-38
2021/03/19 12:10:44;;;;;;;4.70;3.30;;;;;;;10.57;37.33;99053.61;1790754;79;21181;-38
2021/03/19 12:13:15;;;;;;;3.87;3.20;;;;;;;10.38;37.46;99060.71;1784648;79;21601;-38
2021/03/19 12:15:44;;;;;;;3.77;2.92;;;;;;;10.19;37.61;99055.97;1781201;79;21119;-38
2021/03/19 12:18:14;;;;;;;;;;;;;;;10.13;37.57;99058.73;1783008;79;21673;-38
2021/03/19 12:20:42;;;;;;;5.12;3.33;;;;;;;9.80;37.23;99014.69;1790957;79;20506;-38
2021/03/19 12:23:10;;;;;;;3.22;2.90;;;;;;;9.95;37.88;99059.25;1789925;79;21264;-38
2021/03/19 12:25:39;;;;;;;3.02;2.52;;;;;;;9.92;36.60;99053.78;1728830;80;21147;-38
2021/03/19 12:28:11;;;;;;;3.62;3.00;;;;;;;9.89;37.57;99055.27;1735442;81;21185;-38
2021/03/19 12:30:39;;;;;;;5.65;2.83;;;;;;;9.96;37.86;99047.27;1734740;81;21170;-38
2021/03/19 12:33:07;;;;;;;4.00;3.27;;;;;;;10.10;36.78;99045.36;1737691;82;21657;-38
2021/03/19 12:35:38;;;;;;;5.73;4.10;;;;;;;10.09;37.05;99047.85;1769826;78;21381;-38
2021/03/19 12:38:06;;;;;;;3.52;2.98;;;;;;;10.04;37.33;99054.36;1767552;79;21570;-38
2021/03/19 12:40:35;;;;;;;4.28;3.47;;;;;;;9.99;37.46;99053.31;1771358;78;21159;-38
2021/03/19 12:43:05;;;;;;;4.03;2.83;;;;;;;9.96;37.95;99049.20;1760575;79;21193;-38
2021/03/19 12:45:34;;;;;;;4.28;3.10;;;;;;;9.92;37.22;99055.13;1758142;80;21111;-38